Aérodrome :
LOGIN :

S'inscrire | Disclaimer

   EN    FR    IT 

 










Légende :    VFR   VFR Marginal   IFR   IFR Intensif   IFR Très Intensif
Visi : 
Plafond : 
>= 8 km
>= 3000ft
5 à 8 km
1000 à 3000 ft
1500m à 5 km
500 à 1000 ft
800 à 1500m
200 à 500 ft
< 800m
< 200 ft
Symboles :   Orages  Brouillard  Fortes neiges  Fortes précipitations  Vent > 20 kt
SIGMETs :   Divers  Orages  Givrage  Turbulence  Onde Orograph.  Cendres Volcan.






- Altitude de l'aérodrome : 197 ft
- Code IATA : XOG


LFMO - Orange

DERNIER METAR :
  • 071330Z AUTO VRB02KT CAVOK 14/06 Q1020 NOSIG

METARs EXPIRÉS :
  • 071300Z AUTO VRB03KT CAVOK 13/05 Q1020 NOSIG
  • 071230Z AUTO 28004KT 240V320 CAVOK 13/05 Q1020 NOSIG
  • 071200Z AUTO 28003KT 220V300 CAVOK 12/05 Q1021 NOSIG
  • 071130Z AUTO 00000KT CAVOK 11/05 Q1021 NOSIG
  • 071100Z AUTO VRB02KT CAVOK 11/05 Q1021 NOSIG

TAF TAF LFMO
Valide du 07 à 09h jusqu'au 08 à 09h UTC


070800Z 0709/0809 30005KT CAVOK
TEMPO 0723/0806 3000 BR



MET'MAP, la Météo Aéronautique d'un coup d'oeil ! - Copyright ORBIFLY Décembre 2007 - Disclaimer

ORBIFLY MET'MAP TEAM :

Programmation & Développement : Alexandra Zaïnal
Sur une idée originale de : Baudouin d'Aumeries
Assistance à la programmation : Marc-Olivier Méhu
Soutien technique & logistique : Manuel Goepfert

Contact : metmap@orbifly.com




SOURCES & CREDITS :

   NOAA